Terminal Aerodrome Forecast
Issued by NWS

Home | Current Version | Previous Version | Text Only | Print | Product List | Glossary On
Versions: 1 2 3 4 5 6 7 8 9 10 11 12
213
FTUS46 KLOX 251141
TAFPMD
TAF
KPMD 251141Z 2512/2612 VRB04KT P6SM SKC
     FM251700 24012KT P6SM SKC
     FM252000 25015G25KT P6SM SKC
     FM252300 25020G28KT P6SM SKC
     FM260300 25014KT P6SM SKC
     FM260900 21008KT P6SM SKC=

USA.gov is the U.S. government's official web portal to all federal, state and local government web resources and services.